sensor_id;sensor_type;location;lat;lon;timestamp;P1;durP1;ratioP1;P2;durP2;ratioP2
21270;SDS011;10795;50.796;3.860;2024-03-06T00:00:13;4.40;;;4.00;;
21270;SDS011;10795;50.796;3.860;2024-03-06T00:02:39;3.92;;;3.05;;
21270;SDS011;10795;50.796;3.860;2024-03-06T00:05:05;5.57;;;4.90;;
21270;SDS011;10795;50.796;3.860;2024-03-06T00:07:34;5.72;;;4.88;;
21270;SDS011;10795;50.796;3.860;2024-03-06T00:10:00;6.18;;;4.95;;
21270;SDS011;10795;50.796;3.860;2024-03-06T00:12:25;6.03;;;3.72;;
21270;SDS011;10795;50.796;3.860;2024-03-06T00:14:54;6.80;;;4.80;;
21270;SDS011;10795;50.796;3.860;2024-03-06T00:17:20;6.53;;;5.07;;
21270;SDS011;10795;50.796;3.860;2024-03-06T00:19:46;6.72;;;5.00;;
21270;SDS011;10795;50.796;3.860;2024-03-06T00:22:11;7.35;;;5.45;;
21270;SDS011;10795;50.796;3.860;2024-03-06T00:24:37;7.45;;;5.50;;
21270;SDS011;10795;50.796;3.860;2024-03-06T00:27:03;5.75;;;5.15;;
21270;SDS011;10795;50.796;3.860;2024-03-06T00:29:31;7.88;;;5.63;;
21270;SDS011;10795;50.796;3.860;2024-03-06T00:31:57;6.72;;;5.47;;
21270;SDS011;10795;50.796;3.860;2024-03-06T00:34:27;6.80;;;5.70;;
21270;SDS011;10795;50.796;3.860;2024-03-06T00:36:54;7.15;;;5.93;;
21270;SDS011;10795;50.796;3.860;2024-03-06T00:39:22;8.75;;;6.00;;
21270;SDS011;10795;50.796;3.860;2024-03-06T00:41:52;7.13;;;5.57;;
21270;SDS011;10795;50.796;3.860;2024-03-06T00:44:21;6.18;;;5.57;;
21270;SDS011;10795;50.796;3.860;2024-03-06T00:46:47;6.82;;;5.60;;
21270;SDS011;10795;50.796;3.860;2024-03-06T00:49:12;4.70;;;4.05;;
21270;SDS011;10795;50.796;3.860;2024-03-06T00:51:38;7.22;;;5.88;;
21270;SDS011;10795;50.796;3.860;2024-03-06T00:54:04;8.15;;;6.38;;
21270;SDS011;10795;50.796;3.860;2024-03-06T00:56:32;5.65;;;5.15;;
21270;SDS011;10795;50.796;3.860;2024-03-06T00:59:02;5.53;;;4.43;;
21270;SDS011;10795;50.796;3.860;2024-03-06T01:04:16;7.75;;;6.93;;
21270;SDS011;10795;50.796;3.860;2024-03-06T01:06:42;7.65;;;6.85;;
21270;SDS011;10795;50.796;3.860;2024-03-06T01:09:07;8.50;;;7.22;;
21270;SDS011;10795;50.796;3.860;2024-03-06T01:11:33;7.47;;;6.32;;
21270;SDS011;10795;50.796;3.860;2024-03-06T01:13:59;9.15;;;7.00;;
21270;SDS011;10795;50.796;3.860;2024-03-06T01:16:25;4.60;;;3.35;;
21270;SDS011;10795;50.796;3.860;2024-03-06T01:18:50;9.52;;;6.50;;
21270;SDS011;10795;50.796;3.860;2024-03-06T01:21:16;6.85;;;5.68;;
21270;SDS011;10795;50.796;3.860;2024-03-06T01:23:42;3.47;;;2.88;;
21270;SDS011;10795;50.796;3.860;2024-03-06T01:26:08;7.32;;;5.80;;
21270;SDS011;10795;50.796;3.860;2024-03-06T01:28:36;9.85;;;6.78;;
21270;SDS011;10795;50.796;3.860;2024-03-06T01:31:02;6.95;;;5.57;;
21270;SDS011;10795;50.796;3.860;2024-03-06T01:33:28;8.07;;;7.05;;
21270;SDS011;10795;50.796;3.860;2024-03-06T01:35:56;6.68;;;5.97;;
21270;SDS011;10795;50.796;3.860;2024-03-06T01:38:26;9.38;;;7.43;;
21270;SDS011;10795;50.796;3.860;2024-03-06T01:40:51;8.13;;;6.60;;
21270;SDS011;10795;50.796;3.860;2024-03-06T01:43:20;8.50;;;7.07;;
21270;SDS011;10795;50.796;3.860;2024-03-06T01:45:47;9.32;;;7.22;;
21270;SDS011;10795;50.796;3.860;2024-03-06T01:48:15;6.07;;;5.47;;
21270;SDS011;10795;50.796;3.860;2024-03-06T01:50:48;9.20;;;6.78;;
21270;SDS011;10795;50.796;3.860;2024-03-06T01:53:14;7.68;;;6.78;;
21270;SDS011;10795;50.796;3.860;2024-03-06T01:55:45;8.90;;;7.47;;
21270;SDS011;10795;50.796;3.860;2024-03-06T01:58:12;8.32;;;6.95;;
21270;SDS011;10795;50.796;3.860;2024-03-06T02:00:39;8.75;;;7.38;;
21270;SDS011;10795;50.796;3.860;2024-03-06T02:03:06;10.70;;;7.43;;
21270;SDS011;10795;50.796;3.860;2024-03-06T02:05:42;7.60;;;6.80;;
21270;SDS011;10795;50.796;3.860;2024-03-06T02:08:08;8.17;;;7.37;;
21270;SDS011;10795;50.796;3.860;2024-03-06T02:10:34;5.75;;;4.97;;
21270;SDS011;10795;50.796;3.860;2024-03-06T02:13:00;9.40;;;6.97;;
21270;SDS011;10795;50.796;3.860;2024-03-06T02:15:28;8.10;;;7.07;;
21270;SDS011;10795;50.796;3.860;2024-03-06T02:17:54;9.30;;;7.47;;
21270;SDS011;10795;50.796;3.860;2024-03-06T02:20:23;5.40;;;4.78;;
21270;SDS011;10795;50.796;3.860;2024-03-06T02:22:51;7.50;;;6.13;;
21270;SDS011;10795;50.796;3.860;2024-03-06T02:25:17;10.20;;;8.05;;
21270;SDS011;10795;50.796;3.860;2024-03-06T02:27:45;9.88;;;7.72;;
21270;SDS011;10795;50.796;3.860;2024-03-06T02:30:13;7.45;;;6.35;;
21270;SDS011;10795;50.796;3.860;2024-03-06T02:32:39;8.68;;;6.75;;
21270;SDS011;10795;50.796;3.860;2024-03-06T02:35:08;8.63;;;7.72;;
21270;SDS011;10795;50.796;3.860;2024-03-06T02:37:35;7.78;;;6.97;;
21270;SDS011;10795;50.796;3.860;2024-03-06T02:40:00;9.90;;;7.60;;
21270;SDS011;10795;50.796;3.860;2024-03-06T02:42:27;8.45;;;7.40;;
21270;SDS011;10795;50.796;3.860;2024-03-06T02:44:53;10.88;;;7.57;;
21270;SDS011;10795;50.796;3.860;2024-03-06T02:47:21;8.57;;;7.68;;
21270;SDS011;10795;50.796;3.860;2024-03-06T02:49:46;4.10;;;3.70;;
21270;SDS011;10795;50.796;3.860;2024-03-06T02:52:12;3.58;;;2.90;;
21270;SDS011;10795;50.796;3.860;2024-03-06T02:54:40;10.05;;;7.18;;
21270;SDS011;10795;50.796;3.860;2024-03-06T02:57:09;9.07;;;7.38;;
21270;SDS011;10795;50.796;3.860;2024-03-06T02:59:34;7.32;;;5.50;;
21270;SDS011;10795;50.796;3.860;2024-03-06T03:02:00;7.75;;;6.80;;
21270;SDS011;10795;50.796;3.860;2024-03-06T03:04:26;8.40;;;7.00;;
21270;SDS011;10795;50.796;3.860;2024-03-06T03:06:52;7.82;;;6.75;;
21270;SDS011;10795;50.796;3.860;2024-03-06T03:09:17;10.48;;;7.45;;
21270;SDS011;10795;50.796;3.860;2024-03-06T03:11:43;8.23;;;7.07;;
21270;SDS011;10795;50.796;3.860;2024-03-06T03:14:09;7.97;;;6.50;;
21270;SDS011;10795;50.796;3.860;2024-03-06T03:16:37;8.20;;;7.20;;
21270;SDS011;10795;50.796;3.860;2024-03-06T03:19:05;8.18;;;7.10;;
21270;SDS011;10795;50.796;3.860;2024-03-06T03:23:59;8.07;;;7.28;;
21270;SDS011;10795;50.796;3.860;2024-03-06T03:26:25;5.93;;;4.90;;
21270;SDS011;10795;50.796;3.860;2024-03-06T03:28:53;7.90;;;6.95;;
21270;SDS011;10795;50.796;3.860;2024-03-06T03:31:20;8.45;;;7.05;;
21270;SDS011;10795;50.796;3.860;2024-03-06T03:33:48;7.93;;;6.95;;
21270;SDS011;10795;50.796;3.860;2024-03-06T03:36:17;10.52;;;7.70;;
21270;SDS011;10795;50.796;3.860;2024-03-06T03:38:43;8.90;;;7.25;;
21270;SDS011;10795;50.796;3.860;2024-03-06T03:41:09;9.05;;;7.15;;
21270;SDS011;10795;50.796;3.860;2024-03-06T03:43:41;9.38;;;7.65;;
21270;SDS011;10795;50.796;3.860;2024-03-06T03:46:07;9.38;;;8.23;;
21270;SDS011;10795;50.796;3.860;2024-03-06T03:48:34;9.65;;;8.18;;
21270;SDS011;10795;50.796;3.860;2024-03-06T03:53:30;10.63;;;8.07;;
21270;SDS011;10795;50.796;3.860;2024-03-06T03:55:55;9.63;;;7.60;;
21270;SDS011;10795;50.796;3.860;2024-03-06T03:58:21;10.02;;;7.60;;
21270;SDS011;10795;50.796;3.860;2024-03-06T04:00:47;10.27;;;7.90;;
21270;SDS011;10795;50.796;3.860;2024-03-06T04:03:13;9.23;;;7.63;;
21270;SDS011;10795;50.796;3.860;2024-03-06T04:05:39;11.25;;;8.30;;
21270;SDS011;10795;50.796;3.860;2024-03-06T04:08:07;9.45;;;8.43;;
21270;SDS011;10795;50.796;3.860;2024-03-06T04:10:34;10.52;;;8.60;;
21270;SDS011;10795;50.796;3.860;2024-03-06T04:13:00;11.23;;;8.85;;
21270;SDS011;10795;50.796;3.860;2024-03-06T04:15:26;8.65;;;7.72;;
21270;SDS011;10795;50.796;3.860;2024-03-06T04:17:52;9.98;;;7.45;;
21270;SDS011;10795;50.796;3.860;2024-03-06T04:20:20;11.70;;;8.32;;
21270;SDS011;10795;50.796;3.860;2024-03-06T04:22:45;12.23;;;8.68;;
21270;SDS011;10795;50.796;3.860;2024-03-06T04:25:13;11.90;;;8.98;;
21270;SDS011;10795;50.796;3.860;2024-03-06T04:27:41;9.80;;;8.30;;
21270;SDS011;10795;50.796;3.860;2024-03-06T04:30:06;10.50;;;8.02;;
21270;SDS011;10795;50.796;3.860;2024-03-06T04:32:33;11.40;;;8.45;;
21270;SDS011;10795;50.796;3.860;2024-03-06T04:35:03;10.80;;;8.52;;
21270;SDS011;10795;50.796;3.860;2024-03-06T04:37:32;8.98;;;6.78;;
21270;SDS011;10795;50.796;3.860;2024-03-06T04:39:58;5.28;;;4.00;;
21270;SDS011;10795;50.796;3.860;2024-03-06T04:42:26;11.70;;;7.65;;
21270;SDS011;10795;50.796;3.860;2024-03-06T04:44:52;7.88;;;6.90;;
21270;SDS011;10795;50.796;3.860;2024-03-06T04:47:23;9.95;;;7.95;;
21270;SDS011;10795;50.796;3.860;2024-03-06T04:49:50;10.98;;;8.43;;
21270;SDS011;10795;50.796;3.860;2024-03-06T04:52:17;12.88;;;8.55;;
21270;SDS011;10795;50.796;3.860;2024-03-06T04:54:43;11.85;;;8.38;;
21270;SDS011;10795;50.796;3.860;2024-03-06T04:57:12;9.18;;;7.88;;
21270;SDS011;10795;50.796;3.860;2024-03-06T04:59:37;13.25;;;9.15;;
21270;SDS011;10795;50.796;3.860;2024-03-06T05:02:03;11.27;;;8.95;;
21270;SDS011;10795;50.796;3.860;2024-03-06T05:04:29;12.45;;;8.82;;
21270;SDS011;10795;50.796;3.860;2024-03-06T05:06:55;8.07;;;7.13;;
21270;SDS011;10795;50.796;3.860;2024-03-06T05:09:23;9.40;;;6.05;;
21270;SDS011;10795;50.796;3.860;2024-03-06T05:11:49;6.80;;;5.93;;
21270;SDS011;10795;50.796;3.860;2024-03-06T05:14:20;7.10;;;6.22;;
21270;SDS011;10795;50.796;3.860;2024-03-06T05:16:48;6.88;;;5.85;;
21270;SDS011;10795;50.796;3.860;2024-03-06T05:19:16;8.07;;;6.30;;
21270;SDS011;10795;50.796;3.860;2024-03-06T05:21:42;5.97;;;5.43;;
21270;SDS011;10795;50.796;3.860;2024-03-06T05:24:10;8.00;;;6.70;;
21270;SDS011;10795;50.796;3.860;2024-03-06T05:26:38;9.75;;;7.60;;
21270;SDS011;10795;50.796;3.860;2024-03-06T05:29:04;6.28;;;5.65;;
21270;SDS011;10795;50.796;3.860;2024-03-06T05:31:30;8.07;;;6.80;;
21270;SDS011;10795;50.796;3.860;2024-03-06T05:33:58;10.90;;;5.93;;
21270;SDS011;10795;50.796;3.860;2024-03-06T05:36:28;9.63;;;5.47;;
21270;SDS011;10795;50.796;3.860;2024-03-06T05:38:54;7.00;;;6.22;;
21270;SDS011;10795;50.796;3.860;2024-03-06T05:41:22;9.25;;;6.40;;
21270;SDS011;10795;50.796;3.860;2024-03-06T05:43:48;8.20;;;6.45;;
21270;SDS011;10795;50.796;3.860;2024-03-06T05:46:14;7.85;;;6.90;;
21270;SDS011;10795;50.796;3.860;2024-03-06T05:48:41;7.40;;;6.50;;
21270;SDS011;10795;50.796;3.860;2024-03-06T05:51:07;24.50;;;11.52;;
21270;SDS011;10795;50.796;3.860;2024-03-06T05:53:39;5.00;;;3.70;;
21270;SDS011;10795;50.796;3.860;2024-03-06T05:56:07;11.80;;;7.25;;
21270;SDS011;10795;50.796;3.860;2024-03-06T05:58:33;14.55;;;9.45;;
21270;SDS011;10795;50.796;3.860;2024-03-06T06:01:02;11.00;;;8.88;;
21270;SDS011;10795;50.796;3.860;2024-03-06T06:03:30;12.60;;;8.95;;
21270;SDS011;10795;50.796;3.860;2024-03-06T06:05:59;10.85;;;8.43;;
21270;SDS011;10795;50.796;3.860;2024-03-06T06:08:24;11.57;;;8.63;;
21270;SDS011;10795;50.796;3.860;2024-03-06T06:10:50;10.18;;;9.05;;
21270;SDS011;10795;50.796;3.860;2024-03-06T06:13:22;18.83;;;9.98;;
21270;SDS011;10795;50.796;3.860;2024-03-06T06:15:48;12.80;;;9.43;;
21270;SDS011;10795;50.796;3.860;2024-03-06T06:18:16;11.50;;;9.38;;
21270;SDS011;10795;50.796;3.860;2024-03-06T06:20:43;11.63;;;9.02;;
21270;SDS011;10795;50.796;3.860;2024-03-06T06:23:09;10.35;;;8.82;;
21270;SDS011;10795;50.796;3.860;2024-03-06T06:25:35;11.32;;;9.23;;
21270;SDS011;10795;50.796;3.860;2024-03-06T06:28:03;12.68;;;9.48;;
21270;SDS011;10795;50.796;3.860;2024-03-06T06:30:31;92.18;;;44.45;;
21270;SDS011;10795;50.796;3.860;2024-03-06T06:32:57;47.63;;;27.58;;
21270;SDS011;10795;50.796;3.860;2024-03-06T06:35:23;47.63;;;25.23;;
21270;SDS011;10795;50.796;3.860;2024-03-06T06:37:50;35.13;;;18.70;;
21270;SDS011;10795;50.796;3.860;2024-03-06T06:40:16;35.95;;;20.70;;
21270;SDS011;10795;50.796;3.860;2024-03-06T06:42:45;25.20;;;16.50;;
21270;SDS011;10795;50.796;3.860;2024-03-06T06:45:18;30.17;;;19.17;;
21270;SDS011;10795;50.796;3.860;2024-03-06T06:47:50;18.38;;;12.27;;
21270;SDS011;10795;50.796;3.860;2024-03-06T06:50:16;22.48;;;14.38;;
21270;SDS011;10795;50.796;3.860;2024-03-06T06:52:45;20.90;;;15.07;;
21270;SDS011;10795;50.796;3.860;2024-03-06T06:55:17;17.55;;;13.73;;
21270;SDS011;10795;50.796;3.860;2024-03-06T06:57:43;14.25;;;11.82;;
21270;SDS011;10795;50.796;3.860;2024-03-06T07:00:09;11.35;;;8.65;;
21270;SDS011;10795;50.796;3.860;2024-03-06T07:02:38;14.98;;;11.35;;
21270;SDS011;10795;50.796;3.860;2024-03-06T07:05:08;15.70;;;12.05;;
21270;SDS011;10795;50.796;3.860;2024-03-06T07:07:37;16.27;;;12.13;;
21270;SDS011;10795;50.796;3.860;2024-03-06T07:10:06;15.60;;;12.57;;
21270;SDS011;10795;50.796;3.860;2024-03-06T07:12:33;13.57;;;9.52;;
21270;SDS011;10795;50.796;3.860;2024-03-06T07:15:01;12.73;;;8.35;;
21270;SDS011;10795;50.796;3.860;2024-03-06T07:17:30;10.20;;;6.95;;
21270;SDS011;10795;50.796;3.860;2024-03-06T07:19:56;11.27;;;7.65;;
21270;SDS011;10795;50.796;3.860;2024-03-06T07:22:22;12.27;;;9.02;;
21270;SDS011;10795;50.796;3.860;2024-03-06T07:24:48;8.73;;;7.60;;
21270;SDS011;10795;50.796;3.860;2024-03-06T07:27:13;10.15;;;6.53;;
21270;SDS011;10795;50.796;3.860;2024-03-06T07:29:39;8.52;;;6.18;;
21270;SDS011;10795;50.796;3.860;2024-03-06T07:32:05;8.50;;;6.50;;
21270;SDS011;10795;50.796;3.860;2024-03-06T07:34:33;7.88;;;5.90;;
21270;SDS011;10795;50.796;3.860;2024-03-06T07:36:59;7.95;;;5.68;;
21270;SDS011;10795;50.796;3.860;2024-03-06T07:39:25;6.43;;;5.03;;
21270;SDS011;10795;50.796;3.860;2024-03-06T07:41:51;5.90;;;4.80;;
21270;SDS011;10795;50.796;3.860;2024-03-06T07:44:21;6.07;;;4.70;;
21270;SDS011;10795;50.796;3.860;2024-03-06T07:46:47;5.32;;;4.47;;
21270;SDS011;10795;50.796;3.860;2024-03-06T07:49:14;4.43;;;4.03;;
21270;SDS011;10795;50.796;3.860;2024-03-06T07:51:41;5.20;;;4.70;;
21270;SDS011;10795;50.796;3.860;2024-03-06T07:54:06;7.95;;;5.97;;
21270;SDS011;10795;50.796;3.860;2024-03-06T07:56:34;9.43;;;7.38;;
21270;SDS011;10795;50.796;3.860;2024-03-06T07:59:03;6.50;;;5.40;;
21270;SDS011;10795;50.796;3.860;2024-03-06T08:01:35;9.38;;;7.78;;
21270;SDS011;10795;50.796;3.860;2024-03-06T08:04:07;11.30;;;9.18;;
21270;SDS011;10795;50.796;3.860;2024-03-06T08:06:33;11.30;;;7.32;;
21270;SDS011;10795;50.796;3.860;2024-03-06T08:09:05;12.75;;;8.20;;
21270;SDS011;10795;50.796;3.860;2024-03-06T08:11:33;8.38;;;5.90;;
21270;SDS011;10795;50.796;3.860;2024-03-06T08:14:01;7.57;;;5.72;;
21270;SDS011;10795;50.796;3.860;2024-03-06T08:16:27;9.45;;;6.50;;
21270;SDS011;10795;50.796;3.860;2024-03-06T08:18:56;9.50;;;8.05;;
21270;SDS011;10795;50.796;3.860;2024-03-06T08:21:26;8.10;;;6.20;;
21270;SDS011;10795;50.796;3.860;2024-03-06T08:23:53;10.60;;;6.32;;
21270;SDS011;10795;50.796;3.860;2024-03-06T08:26:21;6.43;;;5.50;;
21270;SDS011;10795;50.796;3.860;2024-03-06T08:28:48;6.47;;;5.07;;
21270;SDS011;10795;50.796;3.860;2024-03-06T08:31:14;8.93;;;6.32;;
21270;SDS011;10795;50.796;3.860;2024-03-06T08:33:40;7.63;;;5.30;;
21270;SDS011;10795;50.796;3.860;2024-03-06T08:36:08;12.38;;;8.07;;
21270;SDS011;10795;50.796;3.860;2024-03-06T08:38:34;9.52;;;6.57;;
21270;SDS011;10795;50.796;3.860;2024-03-06T08:41:00;6.68;;;4.78;;
21270;SDS011;10795;50.796;3.860;2024-03-06T08:43:28;9.23;;;7.03;;
21270;SDS011;10795;50.796;3.860;2024-03-06T08:45:54;7.22;;;6.07;;
21270;SDS011;10795;50.796;3.860;2024-03-06T08:48:20;7.65;;;6.10;;
21270;SDS011;10795;50.796;3.860;2024-03-06T08:50:46;8.52;;;6.38;;
21270;SDS011;10795;50.796;3.860;2024-03-06T08:53:12;7.28;;;5.70;;
21270;SDS011;10795;50.796;3.860;2024-03-06T08:55:41;9.65;;;6.25;;
21270;SDS011;10795;50.796;3.860;2024-03-06T08:58:07;9.10;;;7.53;;
21270;SDS011;10795;50.796;3.860;2024-03-06T09:00:34;9.98;;;7.32;;
21270;SDS011;10795;50.796;3.860;2024-03-06T09:03:02;9.18;;;6.75;;
21270;SDS011;10795;50.796;3.860;2024-03-06T09:05:30;8.50;;;7.43;;
21270;SDS011;10795;50.796;3.860;2024-03-06T09:07:59;9.98;;;7.50;;
21270;SDS011;10795;50.796;3.860;2024-03-06T09:10:27;12.10;;;7.80;;
21270;SDS011;10795;50.796;3.860;2024-03-06T09:12:53;9.25;;;8.05;;
21270;SDS011;10795;50.796;3.860;2024-03-06T09:15:19;6.43;;;4.85;;
21270;SDS011;10795;50.796;3.860;2024-03-06T09:17:45;8.52;;;7.57;;
21270;SDS011;10795;50.796;3.860;2024-03-06T09:20:14;4.03;;;3.63;;
21270;SDS011;10795;50.796;3.860;2024-03-06T09:22:41;8.38;;;6.57;;
21270;SDS011;10795;50.796;3.860;2024-03-06T09:25:07;7.50;;;5.30;;
21270;SDS011;10795;50.796;3.860;2024-03-06T09:27:34;13.18;;;9.32;;
21270;SDS011;10795;50.796;3.860;2024-03-06T09:30:00;9.00;;;7.63;;
21270;SDS011;10795;50.796;3.860;2024-03-06T09:32:26;11.98;;;8.55;;
21270;SDS011;10795;50.796;3.860;2024-03-06T09:34:52;11.73;;;7.93;;
21270;SDS011;10795;50.796;3.860;2024-03-06T09:37:20;12.95;;;9.02;;
21270;SDS011;10795;50.796;3.860;2024-03-06T09:39:46;6.70;;;5.00;;
21270;SDS011;10795;50.796;3.860;2024-03-06T09:42:13;13.45;;;8.77;;
21270;SDS011;10795;50.796;3.860;2024-03-06T09:44:41;13.27;;;9.88;;
21270;SDS011;10795;50.796;3.860;2024-03-06T09:47:07;10.52;;;7.57;;
21270;SDS011;10795;50.796;3.860;2024-03-06T09:49:40;7.97;;;6.75;;
21270;SDS011;10795;50.796;3.860;2024-03-06T09:52:06;9.25;;;6.43;;
21270;SDS011;10795;50.796;3.860;2024-03-06T09:54:32;7.82;;;6.72;;
21270;SDS011;10795;50.796;3.860;2024-03-06T09:56:59;8.90;;;7.25;;
21270;SDS011;10795;50.796;3.860;2024-03-06T09:59:27;7.18;;;6.05;;
21270;SDS011;10795;50.796;3.860;2024-03-06T10:01:57;7.95;;;5.97;;
21270;SDS011;10795;50.796;3.860;2024-03-06T10:04:26;8.20;;;7.22;;
21270;SDS011;10795;50.796;3.860;2024-03-06T10:06:53;5.80;;;4.60;;
21270;SDS011;10795;50.796;3.860;2024-03-06T10:09:20;7.68;;;6.15;;
21270;SDS011;10795;50.796;3.860;2024-03-06T10:11:48;7.85;;;6.88;;
21270;SDS011;10795;50.796;3.860;2024-03-06T10:16:51;6.28;;;4.80;;
21270;SDS011;10795;50.796;3.860;2024-03-06T10:19:18;8.40;;;5.75;;
21270;SDS011;10795;50.796;3.860;2024-03-06T10:21:49;3.53;;;3.07;;
21270;SDS011;10795;50.796;3.860;2024-03-06T10:26:52;8.07;;;5.85;;
21270;SDS011;10795;50.796;3.860;2024-03-06T10:29:24;5.57;;;4.03;;
21270;SDS011;10795;50.796;3.860;2024-03-06T10:31:55;11.30;;;5.88;;
21270;SDS011;10795;50.796;3.860;2024-03-06T10:36:56;6.65;;;4.13;;
21270;SDS011;10795;50.796;3.860;2024-03-06T10:39:30;7.72;;;6.13;;
21270;SDS011;10795;50.796;3.860;2024-03-06T10:41:59;9.60;;;6.20;;
21270;SDS011;10795;50.796;3.860;2024-03-06T10:44:30;6.78;;;5.88;;
21270;SDS011;10795;50.796;3.860;2024-03-06T10:46:59;4.87;;;4.43;;
21270;SDS011;10795;50.796;3.860;2024-03-06T10:49:25;5.50;;;4.47;;
21270;SDS011;10795;50.796;3.860;2024-03-06T10:52:02;7.85;;;5.50;;
21270;SDS011;10795;50.796;3.860;2024-03-06T10:54:32;5.78;;;4.88;;
21270;SDS011;10795;50.796;3.860;2024-03-06T10:57:00;8.02;;;5.90;;
21270;SDS011;10795;50.796;3.860;2024-03-06T10:59:27;6.28;;;5.50;;
21270;SDS011;10795;50.796;3.860;2024-03-06T11:01:56;5.00;;;3.97;;
21270;SDS011;10795;50.796;3.860;2024-03-06T11:06:58;4.63;;;3.72;;
21270;SDS011;10795;50.796;3.860;2024-03-06T11:09:43;7.63;;;5.82;;
21270;SDS011;10795;50.796;3.860;2024-03-06T11:12:11;2.85;;;2.35;;
21270;SDS011;10795;50.796;3.860;2024-03-06T11:14:37;7.63;;;4.28;;
21270;SDS011;10795;50.796;3.860;2024-03-06T11:28:17;5.82;;;4.82;;
21270;SDS011;10795;50.796;3.860;2024-03-06T11:30:46;5.63;;;4.43;;
21270;SDS011;10795;50.796;3.860;2024-03-06T11:33:34;4.45;;;3.50;;
21270;SDS011;10795;50.796;3.860;2024-03-06T11:36:14;8.50;;;5.07;;
21270;SDS011;10795;50.796;3.860;2024-03-06T11:43:55;7.68;;;3.90;;
21270;SDS011;10795;50.796;3.860;2024-03-06T11:46:42;3.58;;;3.15;;
21270;SDS011;10795;50.796;3.860;2024-03-06T11:49:24;7.85;;;5.65;;
21270;SDS011;10795;50.796;3.860;2024-03-06T11:51:51;3.42;;;2.10;;
21270;SDS011;10795;50.796;3.860;2024-03-06T11:54:44;5.47;;;4.40;;
21270;SDS011;10795;50.796;3.860;2024-03-06T11:57:10;2.90;;;1.58;;
21270;SDS011;10795;50.796;3.860;2024-03-06T11:59:41;6.07;;;3.40;;
21270;SDS011;10795;50.796;3.860;2024-03-06T12:02:07;3.80;;;2.47;;
21270;SDS011;10795;50.796;3.860;2024-03-06T12:04:35;3.22;;;2.50;;
21270;SDS011;10795;50.796;3.860;2024-03-06T12:07:03;6.00;;;4.68;;
21270;SDS011;10795;50.796;3.860;2024-03-06T12:09:32;4.65;;;3.70;;
21270;SDS011;10795;50.796;3.860;2024-03-06T12:12:00;2.55;;;1.42;;
21270;SDS011;10795;50.796;3.860;2024-03-06T12:14:27;4.65;;;2.85;;
21270;SDS011;10795;50.796;3.860;2024-03-06T12:19:25;7.47;;;3.60;;
21270;SDS011;10795;50.796;3.860;2024-03-06T12:21:54;3.70;;;2.38;;
21270;SDS011;10795;50.796;3.860;2024-03-06T12:24:24;8.27;;;5.70;;
21270;SDS011;10795;50.796;3.860;2024-03-06T12:26:59;4.40;;;2.42;;
21270;SDS011;10795;50.796;3.860;2024-03-06T12:29:28;6.55;;;3.83;;
21270;SDS011;10795;50.796;3.860;2024-03-06T12:34:24;3.47;;;2.97;;
21270;SDS011;10795;50.796;3.860;2024-03-06T12:36:52;4.45;;;2.78;;
21270;SDS011;10795;50.796;3.860;2024-03-06T12:39:23;1.95;;;1.23;;
21270;SDS011;10795;50.796;3.860;2024-03-06T12:41:51;1.55;;;1.15;;
21270;SDS011;10795;50.796;3.860;2024-03-06T12:44:18;6.40;;;5.10;;
21270;SDS011;10795;50.796;3.860;2024-03-06T12:46:45;4.20;;;3.28;;
21270;SDS011;10795;50.796;3.860;2024-03-06T12:49:14;5.45;;;3.35;;
21270;SDS011;10795;50.796;3.860;2024-03-06T12:51:43;7.35;;;4.43;;
21270;SDS011;10795;50.796;3.860;2024-03-06T12:54:09;2.88;;;1.55;;
21270;SDS011;10795;50.796;3.860;2024-03-06T12:56:35;2.63;;;2.42;;
21270;SDS011;10795;50.796;3.860;2024-03-06T12:59:01;8.57;;;4.95;;
21270;SDS011;10795;50.796;3.860;2024-03-06T13:01:32;3.15;;;2.15;;
21270;SDS011;10795;50.796;3.860;2024-03-06T13:04:00;4.15;;;3.42;;
21270;SDS011;10795;50.796;3.860;2024-03-06T13:06:28;5.20;;;2.40;;
21270;SDS011;10795;50.796;3.860;2024-03-06T13:08:56;3.13;;;1.73;;
21270;SDS011;10795;50.796;3.860;2024-03-06T13:11:27;2.38;;;2.17;;
21270;SDS011;10795;50.796;3.860;2024-03-06T13:13:53;3.17;;;2.72;;
21270;SDS011;10795;50.796;3.860;2024-03-06T13:16:21;3.50;;;2.67;;
21270;SDS011;10795;50.796;3.860;2024-03-06T13:18:47;3.22;;;2.35;;
21270;SDS011;10795;50.796;3.860;2024-03-06T13:21:16;3.42;;;3.13;;
21270;SDS011;10795;50.796;3.860;2024-03-06T13:23:41;2.97;;;1.92;;
21270;SDS011;10795;50.796;3.860;2024-03-06T13:26:07;2.58;;;2.38;;
21270;SDS011;10795;50.796;3.860;2024-03-06T13:28:35;3.13;;;2.10;;
21270;SDS011;10795;50.796;3.860;2024-03-06T13:31:01;4.80;;;3.33;;
21270;SDS011;10795;50.796;3.860;2024-03-06T13:33:31;5.68;;;4.32;;
21270;SDS011;10795;50.796;3.860;2024-03-06T13:35:59;8.45;;;3.72;;
21270;SDS011;10795;50.796;3.860;2024-03-06T13:38:25;1.88;;;1.38;;
21270;SDS011;10795;50.796;3.860;2024-03-06T13:40:54;2.70;;;1.43;;
21270;SDS011;10795;50.796;3.860;2024-03-06T13:43:22;1.45;;;1.08;;
21270;SDS011;10795;50.796;3.860;2024-03-06T13:45:50;1.73;;;1.10;;
21270;SDS011;10795;50.796;3.860;2024-03-06T13:48:18;3.67;;;2.35;;
21270;SDS011;10795;50.796;3.860;2024-03-06T13:50:47;3.45;;;1.98;;
21270;SDS011;10795;50.796;3.860;2024-03-06T13:53:15;3.85;;;2.60;;
21270;SDS011;10795;50.796;3.860;2024-03-06T13:55:43;2.80;;;2.00;;
21270;SDS011;10795;50.796;3.860;2024-03-06T13:58:12;5.00;;;2.08;;
21270;SDS011;10795;50.796;3.860;2024-03-06T14:00:37;4.07;;;2.22;;
21270;SDS011;10795;50.796;3.860;2024-03-06T14:03:03;3.78;;;2.15;;
21270;SDS011;10795;50.796;3.860;2024-03-06T14:05:31;3.50;;;1.90;;
21270;SDS011;10795;50.796;3.860;2024-03-06T14:07:56;3.15;;;2.85;;
21270;SDS011;10795;50.796;3.860;2024-03-06T14:10:22;3.63;;;2.80;;
21270;SDS011;10795;50.796;3.860;2024-03-06T14:12:51;3.70;;;2.40;;
21270;SDS011;10795;50.796;3.860;2024-03-06T14:15:18;3.40;;;2.80;;
21270;SDS011;10795;50.796;3.860;2024-03-06T14:17:44;2.03;;;1.77;;
21270;SDS011;10795;50.796;3.860;2024-03-06T14:20:12;6.25;;;3.40;;
21270;SDS011;10795;50.796;3.860;2024-03-06T14:22:38;5.25;;;2.83;;
21270;SDS011;10795;50.796;3.860;2024-03-06T14:25:04;2.10;;;1.45;;
21270;SDS011;10795;50.796;3.860;2024-03-06T14:27:32;2.03;;;0.83;;
21270;SDS011;10795;50.796;3.860;2024-03-06T14:30:04;5.05;;;1.90;;
21270;SDS011;10795;50.796;3.860;2024-03-06T14:32:34;0.95;;;0.65;;
21270;SDS011;10795;50.796;3.860;2024-03-06T14:35:00;3.40;;;2.85;;
21270;SDS011;10795;50.796;3.860;2024-03-06T14:37:26;6.93;;;2.67;;
21270;SDS011;10795;50.796;3.860;2024-03-06T14:39:54;5.38;;;2.55;;
21270;SDS011;10795;50.796;3.860;2024-03-06T14:42:25;4.13;;;2.25;;
21270;SDS011;10795;50.796;3.860;2024-03-06T14:44:50;4.55;;;2.00;;
21270;SDS011;10795;50.796;3.860;2024-03-06T14:47:19;4.45;;;2.60;;
21270;SDS011;10795;50.796;3.860;2024-03-06T14:49:49;2.97;;;1.80;;
21270;SDS011;10795;50.796;3.860;2024-03-06T14:52:17;3.80;;;1.40;;
21270;SDS011;10795;50.796;3.860;2024-03-06T14:54:43;4.80;;;2.45;;
21270;SDS011;10795;50.796;3.860;2024-03-06T14:57:11;3.58;;;2.75;;
21270;SDS011;10795;50.796;3.860;2024-03-06T14:59:40;8.60;;;5.60;;
21270;SDS011;10795;50.796;3.860;2024-03-06T15:02:08;5.47;;;3.22;;
21270;SDS011;10795;50.796;3.860;2024-03-06T15:04:38;2.05;;;1.35;;
21270;SDS011;10795;50.796;3.860;2024-03-06T15:07:06;3.60;;;1.67;;
21270;SDS011;10795;50.796;3.860;2024-03-06T15:09:32;2.83;;;1.50;;
21270;SDS011;10795;50.796;3.860;2024-03-06T15:11:58;2.50;;;2.05;;
21270;SDS011;10795;50.796;3.860;2024-03-06T15:14:28;4.18;;;1.95;;
21270;SDS011;10795;50.796;3.860;2024-03-06T15:16:54;2.67;;;2.10;;
21270;SDS011;10795;50.796;3.860;2024-03-06T15:19:22;5.18;;;3.15;;
21270;SDS011;10795;50.796;3.860;2024-03-06T15:21:50;24.17;;;13.38;;
21270;SDS011;10795;50.796;3.860;2024-03-06T15:24:18;5.95;;;3.70;;